Flight Track Log - Related Links

Times and Time Zones

All times are in EDT time to prevent confusion due to time zone crossing. See the N5217C flight status page for this flight to view local times or setup timezone preferences in your user account.

Time Position Orientation Groundspeed Altitude Reporting Facility
EDT Latitude Longitude Course Direction KTS MPH feet Rate Location/Type
03:09PM 39.4731 -84.4258 158° South 83 96 2,600  Level Indianapolis Center
03:10PM 39.4308 -84.4042 158° South 114 131 2,900 298 Climbing Indianapolis Center
03:12PM 39.4000 -84.3858 155° Southeast 107 123 3,400 366 Climbing Indianapolis Center
03:13PM 39.3731 -84.3686 154° Southeast 108 124 3,700 387 Climbing Indianapolis Center
03:14PM 39.3469 -84.3522 154° Southeast 107 123 4,200 387 Climbing Indianapolis Center
03:15PM 39.3225 -84.3336 150° Southeast 104 120 4,500 339 Climbing Indianapolis Center
03:16PM 39.2986 -84.3144 148° Southeast 102 117 4,900 290 Climbing Indianapolis Center
03:17PM 39.2736 -84.2961 150° Southeast 102 117 5,100 97 Climbing Indianapolis Center
03:18PM 39.2358 -84.2797 161° South 111 128 5,100 97 Level Indianapolis Center
03:19PM 39.2008 -84.2606 157° South 124 143 5,300 339 Climbing Indianapolis Center
03:20PM 39.1714 -84.2389 150° Southeast 124 143 5,800 484 Climbing Indianapolis Center
03:21PM 39.1456 -84.2247 157° South 109 125 6,300 435 Climbing Indianapolis Center
03:22PM 39.1183 -84.2097 157° South 106 122 6,700 387 Climbing Indianapolis Center
03:23PM 39.0900 -84.1936 156° South 108 124 7,100 432 Climbing Indianapolis Center
03:24PM 39.0619 -84.1775 156° South 108 124 7,600 480 Climbing Indianapolis Center
03:25PM 39.0292 -84.1569 154° Southeast 111 128 8,100 435 Climbing Indianapolis Center
03:26PM 39.0003 -84.1436 160° South 109 125 8,500 387 Climbing Indianapolis Center
03:27PM 38.9708 -84.1286 158° South 112 129 8,900 290 Climbing Indianapolis Center
03:28PM 38.9417 -84.1136 158° South 112 129 9,100 48 Climbing Indianapolis Center
03:29PM 38.9086 -84.0975 159° South 127 146 9,000 -48 Descending Indianapolis Center
03:30PM 38.8722 -84.0758 155° Southeast 141 162 9,000  Level Indianapolis Center
03:31PM 38.8364 -84.0525 153° Southeast 142 163 9,000  Level Indianapolis Center
03:32PM 38.7944 -84.0269 155° Southeast 144 166 9,000  Level Indianapolis Center
03:33PM 38.7578 -84.0058 156° South 144 166 9,000  Level Indianapolis Center
03:34PM 38.7194 -83.9847 157° South 148 170 9,000 145 Level Indianapolis Center
03:35PM 38.6819 -83.9728 166° South 138 159 9,300 387 Climbing Indianapolis Center
03:36PM 38.6492 -83.9578 160° South 126 145 9,800 435 Climbing Indianapolis Center
03:37PM 38.6186 -83.9336 148° Southeast 120 138 10,200 387 Climbing Indianapolis Center
03:38PM 38.5900 -83.9114 149° Southeast 120 138 10,600 387 Climbing Indianapolis Center
03:39PM 38.5594 -83.8975 160° South 118 136 11,000 194 Climbing Indianapolis Center
03:41PM 38.5225 -83.8739 153° Southeast 128 147 11,000  Level Indianapolis Center
03:42PM 38.4858 -83.8536 157° South 141 162 11,000  Level Indianapolis Center
03:43PM 38.4483 -83.8331 157° South 144 166 11,000  Level Indianapolis Center
03:44PM 38.4097 -83.8100 155° Southeast 152 175 11,000  Level Indianapolis Center
03:45PM 38.3728 -83.7867 154° Southeast 149 171 11,000  Level Indianapolis Center
03:46PM 38.3267 -83.7617 157° South 153 176 11,000  Level Indianapolis Center
03:47PM 38.2878 -83.7411 157° South 152 175 11,000  Level Indianapolis Center
03:48PM 38.2489 -83.7208 158° South 150 173 11,000  Level Indianapolis Center
03:49PM 38.2097 -83.6981 155° Southeast 152 175 11,000  Level Indianapolis Center
03:50PM 38.1711 -83.6758 156° South 151 174 11,000  Level Indianapolis Center
03:51PM 38.1256 -83.6511 157° South 150 173 11,000 48 Level Indianapolis Center
03:52PM 38.0869 -83.6294 156° South 151 174 11,100 48 Climbing Indianapolis Center
03:53PM 38.0486 -83.6075 156° South 150 173 11,100  Level Indianapolis Center
03:54PM 38.0103 -83.5869 157° South 149 171 11,100  Level Indianapolis Center
03:55PM 37.9722 -83.5656 156° South 147 169 11,100  Level Indianapolis Center
03:56PM 37.9336 -83.5458 158° South 150 173 11,100  Level Indianapolis Center
03:57PM 37.8889 -83.5192 155° Southeast 152 175 11,100  Level Indianapolis Center
03:58PM 37.8503 -83.4992 158° South 149 171 11,100  Level Indianapolis Center
03:59PM 37.8117 -83.4789 157° South 150 173 11,100  Level Indianapolis Center
04:00PM 37.7739 -83.4567 155° Southeast 149 171 11,100  Level Indianapolis Center
04:01PM 37.7356 -83.4356 156° South 150 173 11,100 -48 Level Indianapolis Center
04:02PM 37.6903 -83.4117 157° South 151 174 11,000 -48 Descending Indianapolis Center
04:03PM 37.6514 -83.3906 157° South 152 175 11,000  Level Indianapolis Center
04:04PM 37.6133 -83.3703 157° South 150 173 11,000  Level Indianapolis Center
04:05PM 37.5750 -83.3489 156° South 149 171 11,000  Level Indianapolis Center
04:06PM 37.5367 -83.3272 156° South 150 173 11,000  Level Indianapolis Center
04:07PM 37.4969 -83.3058 157° South 153 176 11,000  Level Indianapolis Center
04:08PM 37.4517 -83.2825 158° South 151 174 11,000  Level Indianapolis Center
04:09PM 37.4133 -83.2611 156° South 151 174 11,000  Level Indianapolis Center
04:11PM 37.3750 -83.2397 156° South 150 173 11,000  Level Indianapolis Center
04:12PM 37.3367 -83.2181 156° South 151 174 11,000  Level Indianapolis Center
04:13PM 37.2981 -83.1981 158° South 149 171 11,000  Level Indianapolis Center
04:14PM 37.2539 -83.1753 158° South 148 170 11,000  Level Indianapolis Center
04:15PM 37.2156 -83.1539 156° South 149 171 11,000  Level Indianapolis Center
04:16PM 37.1764 -83.1339 158° South 151 174 11,000  Level Indianapolis Center
04:17PM 37.1369 -83.1125 157° South 154 177 11,000  Level Indianapolis Center
04:18PM 37.0978 -83.0911 156° South 154 177 11,000  Level Indianapolis Center
04:19PM 37.0592 -83.0706 157° South 152 175 11,000  Level Indianapolis Center
04:20PM 37.0164 -83.0478 157° South 144 166 11,000  Level Indianapolis Center
04:21PM 36.9797 -83.0278 156° South 143 165 11,000  Level Indianapolis Center
04:22PM 36.9422 -83.0083 157° South 146 168 11,000  Level Indianapolis Center
04:23PM 36.9047 -82.9881 157° South 148 170 11,000  Level Indianapolis Center
04:24PM 36.8619 -82.9656 157° South 145 167 11,000  Level Indianapolis Center
04:25PM 36.8231 -82.9469 159° South 153 176 11,000  Level Atlanta Center
04:26PM 36.7872 -82.9267 156° South 153 176 11,000  Level Atlanta Center
04:27PM 36.7475 -82.9067 158° South 153 176 11,000  Level Atlanta Center
04:28PM 36.7119 -82.8864 155° Southeast 153 176 11,000  Level Atlanta Center
04:29PM 36.6719 -82.8664 158° South 153 176 11,000  Level Atlanta Center
04:30PM 36.6344 -82.8461 157° South 153 176 11,000  Level Atlanta Center
04:31PM 36.5944 -82.8261 158° South 153 176 11,000  Level Atlanta Center
04:32PM 36.5567 -82.8058 157° South 153 176 11,000  Level Atlanta Center
04:33PM 36.5192 -82.7858 157° South 153 176 11,000  Level Atlanta Center
04:34PM 36.4814 -82.7633 154° Southeast 153 176 11,000  Level Atlanta Center
04:35PM 36.4414 -82.7433 158° South 153 176 11,000  Level Atlanta Center
04:36PM 36.4036 -82.7231 157° South 153 176 11,000  Level Atlanta Center
04:37PM 36.3658 -82.7031 157° South 153 176 11,000  Level Atlanta Center
04:38PM 36.3281 -82.6831 157° South 153 176 11,000  Level Atlanta Center
04:39PM 36.2883 -82.6633 158° South 153 176 11,000  Level Atlanta Center
04:40PM 36.2464 -82.6408 157° South 153 176 11,000  Level Atlanta Center
04:41PM 36.2086 -82.6208 157° South 153 176 11,000  Level Atlanta Center
04:42PM 36.1686 -82.5983 156° South 153 176 11,000  Level Atlanta Center
04:43PM 36.1289 -82.5786 158° South 153 176 11,000 -50 Level Atlanta Center
04:44PM 36.0889 -82.5586 158° South 153 176 10,900 -50 Descending Atlanta Center
04:45PM 36.0511 -82.5389 157° South 153 176 10,900  Level Atlanta Center
04:46PM 36.0092 -82.5192 159° South 153 176 10,900  Level Atlanta Center
04:47PM 35.9736 -82.4967 153° Southeast 153 176 10,900 50 Level Atlanta Center
04:48PM 35.9336 -82.4819 163° South 148 170 11,000 -150 Climbing Atlanta Center
04:49PM 35.8919 -82.4778 175° South 148 170 10,600 -550 Descending Atlanta Center
04:50PM 35.8500 -82.4658 167° South 153 176 9,900 -700 Descending Atlanta Center
04:52PM 35.7954 -82.4413 160° South  Level FlightAware Approximate
04:59PM 35.5345 -82.3246 160° South  Level FlightAware Approximate
05:00PM 35.4971 -82.3083 161° South  Level FlightAware Approximate
05:01PM 35.4597 -82.2922 161° South  Level FlightAware Approximate
05:02PM 35.4223 -82.2762 161° South  Level FlightAware Approximate
05:03PM 35.3845 -82.2615 165° South  Level FlightAware Approximate
05:04PM 35.3461 -82.2496 176° South  Level FlightAware Approximate
05:05PM 35.3066 -82.2460 176° South  Level FlightAware Approximate
05:06PM 35.2670 -82.2424 176° South  Level FlightAware Approximate
05:07PM 35.2275 -82.2389 176° South  Level FlightAware Approximate
05:08PM 35.1880 -82.2353 176° South  Level FlightAware Approximate
05:09PM 35.1484 -82.2333 180° South  Level FlightAware Approximate
05:10PM 35.1087 -82.2333 180° South  Level FlightAware Approximate
05:11PM 35.0691 -82.2333 180° South  Level FlightAware Approximate
05:12PM 35.0321 -82.2167 180° South  Level FlightAware Approximate
05:13PM 35.0055 -82.1905 118° Southeast  Level FlightAware Approximate
05:14PM 34.9871 -82.1476 118° Southeast  Level FlightAware Approximate
05:15PM 34.9688 -82.1047 118° Southeast  Level FlightAware Approximate
05:16PM 34.9504 -82.0619 118° Southeast  Level FlightAware Approximate
05:17PM 34.9320 -82.0190 118° Southeast  Level FlightAware Approximate
05:18PM 34.9132 -81.9764 121° Southeast  Level FlightAware Approximate
05:19PM 34.9157 -81.9565 121° Southeast  Level Estimated
05:20PM 34.9157 -81.9565 121° Southeast  Level Estimated

Login

Don't have an account? Register now (free) for customized features, flight alerts, and more!